createdAt,value
2023-03-03T00:02:06.161Z,46.77
2023-03-03T00:04:33.681Z,39.83
2023-03-03T00:07:01.199Z,40.33
2023-03-03T00:09:28.703Z,43.67
2023-03-03T00:12:00.532Z,44.27
2023-03-03T00:14:33.267Z,41.57
2023-03-03T00:17:12.583Z,39.90
2023-03-03T00:19:41.203Z,39.20
2023-03-03T00:22:31.432Z,42.10
2023-03-03T00:25:21.039Z,39.80
2023-03-03T00:27:48.622Z,43.90
2023-03-03T00:30:27.716Z,40.27
2023-03-03T00:32:56.027Z,43.97
2023-03-03T00:35:35.390Z,43.63
2023-03-03T00:38:18.754Z,41.90
2023-03-03T00:40:48.056Z,46.97
2023-03-03T00:43:25.227Z,34.47
2023-03-03T00:45:57.820Z,40.43
2023-03-03T00:48:43.250Z,43.93
2023-03-03T00:51:34.335Z,39.60
2023-03-03T00:54:01.963Z,44.13
2023-03-03T00:56:29.465Z,41.00
2023-03-03T00:58:57.802Z,42.93
2023-03-03T01:01:28.157Z,47.10
2023-03-03T01:03:55.981Z,43.17
2023-03-03T01:06:23.840Z,42.20
2023-03-03T01:08:51.853Z,39.70
2023-03-03T01:11:25.837Z,42.43
2023-03-03T01:16:21.339Z,38.63
2023-03-03T01:18:48.998Z,44.93
2023-03-03T01:21:16.514Z,40.67
2023-03-03T01:23:44.136Z,41.53
2023-03-03T01:26:11.711Z,46.20
2023-03-03T01:28:39.805Z,41.37
2023-03-03T01:31:07.565Z,50.73
2023-03-03T01:33:36.395Z,45.90
2023-03-03T01:36:04.667Z,41.67
2023-03-03T01:38:35.084Z,42.00
2023-03-03T01:41:03.194Z,43.43
2023-03-03T01:43:33.300Z,47.07
2023-03-03T01:46:00.707Z,42.37
2023-03-03T01:48:42.584Z,43.33
2023-03-03T01:51:25.955Z,50.00
2023-03-03T01:54:12.426Z,46.25
2023-03-03T01:56:41.440Z,44.43
2023-03-03T01:59:25.706Z,50.63
2023-03-03T02:04:22.000Z,44.77
2023-03-03T02:06:58.101Z,49.10
2023-03-03T02:10:04.635Z,44.60
2023-03-03T02:12:39.268Z,38.57
2023-03-03T02:15:37.564Z,43.57
2023-03-03T02:18:18.926Z,44.20
2023-03-03T02:20:58.930Z,45.67
2023-03-03T02:23:49.736Z,41.63
2023-03-03T02:26:23.476Z,42.27
2023-03-03T02:28:56.139Z,45.70
2023-03-03T02:31:27.697Z,41.87
2023-03-03T02:33:56.445Z,44.30
2023-03-03T02:36:34.414Z,47.83
2023-03-03T02:39:20.554Z,45.30
2023-03-03T02:42:20.322Z,48.87
2023-03-03T02:44:52.249Z,45.22
2023-03-03T02:47:19.920Z,45.93
2023-03-03T02:49:47.483Z,44.00
2023-03-03T02:52:17.980Z,45.53
2023-03-03T02:54:47.409Z,43.40
2023-03-03T02:57:15.061Z,47.03
2023-03-03T02:59:42.574Z,43.20
2023-03-03T03:02:15.067Z,41.87
2023-03-03T03:04:43.092Z,43.60
2023-03-03T03:07:13.140Z,40.70
2023-03-03T03:09:40.827Z,46.97
2023-03-03T03:12:09.151Z,41.07
2023-03-03T03:14:37.484Z,43.27
2023-03-03T03:17:06.594Z,44.33
2023-03-03T03:19:34.198Z,46.23
2023-03-03T03:22:03.500Z,45.83
2023-03-03T03:24:34.055Z,45.27
2023-03-03T03:27:05.058Z,48.73
2023-03-03T03:29:33.323Z,42.63
2023-03-03T03:32:01.301Z,46.07
2023-03-03T03:34:28.979Z,47.30
2023-03-03T03:36:57.047Z,42.83
2023-03-03T03:39:26.929Z,41.50
2023-03-03T03:41:55.047Z,46.30
2023-03-03T03:44:23.925Z,40.47
2023-03-03T03:46:51.567Z,45.07
2023-03-03T03:49:20.853Z,45.47
2023-03-03T03:51:49.583Z,40.83
2023-03-03T03:54:20.267Z,45.53
2023-03-03T03:56:48.497Z,44.63
2023-03-03T03:59:16.088Z,49.37
2023-03-03T04:01:43.645Z,46.37
2023-03-03T04:04:11.194Z,47.27
2023-03-03T04:06:39.769Z,52.37
2023-03-03T04:09:07.753Z,42.27
2023-03-03T04:11:35.858Z,45.10
2023-03-03T04:14:05.487Z,42.70
2023-03-03T04:16:33.980Z,48.90
2023-03-03T04:19:01.512Z,47.30
2023-03-03T04:21:29.790Z,50.27
2023-03-03T04:23:59.886Z,47.53
2023-03-03T04:26:30.945Z,47.57
2023-03-03T04:29:01.578Z,50.80
2023-03-03T04:31:29.679Z,48.03
2023-03-03T04:33:57.322Z,48.73
2023-03-03T04:36:25.476Z,50.73
2023-03-03T04:38:53.288Z,48.90
2023-03-03T04:41:21.369Z,54.53
2023-03-03T04:43:49.002Z,42.87
2023-03-03T04:46:16.674Z,43.57
2023-03-03T04:48:44.256Z,44.60
2023-03-03T04:51:12.163Z,53.47
2023-03-03T04:53:39.745Z,45.77
2023-03-03T04:56:09.131Z,42.27
2023-03-03T04:58:37.372Z,43.77
2023-03-03T05:01:05.367Z,49.47
2023-03-03T05:03:34.098Z,48.20
2023-03-03T05:06:01.640Z,44.00
2023-03-03T05:08:29.134Z,48.13
2023-03-03T05:10:56.849Z,44.83
2023-03-03T05:13:24.380Z,49.43
2023-03-03T05:15:55.398Z,43.50
2023-03-03T05:18:24.869Z,45.57
2023-03-03T05:20:52.827Z,45.60
2023-03-03T05:23:21.672Z,45.60
2023-03-03T05:25:50.414Z,46.10
2023-03-03T05:28:18.567Z,46.90
2023-03-03T05:30:46.772Z,47.63
2023-03-03T05:33:16.761Z,40.87
2023-03-03T05:35:44.786Z,47.33
2023-03-03T05:38:12.631Z,46.23
2023-03-03T05:40:40.256Z,51.90
2023-03-03T05:43:07.797Z,50.77
2023-03-03T05:45:35.667Z,48.53
2023-03-03T05:48:04.834Z,50.57
2023-03-03T05:50:32.755Z,50.10
2023-03-03T05:53:01.372Z,49.40
2023-03-03T05:55:28.920Z,51.87
2023-03-03T05:57:56.546Z,46.13
2023-03-03T06:00:24.224Z,45.60
2023-03-03T06:02:51.861Z,49.73
2023-03-03T06:05:19.357Z,46.97
2023-03-03T06:07:46.918Z,43.40
2023-03-03T06:10:14.509Z,39.43
2023-03-03T06:12:45.086Z,47.07
2023-03-03T06:15:12.619Z,45.53
2023-03-03T06:17:40.233Z,48.37
2023-03-03T06:20:08.732Z,45.07
2023-03-03T06:22:36.224Z,48.60
2023-03-03T06:25:04.057Z,43.33
2023-03-03T06:27:31.548Z,48.83
2023-03-03T06:29:59.117Z,47.50
2023-03-03T06:32:26.673Z,46.63
2023-03-03T06:34:54.205Z,46.20
2023-03-03T06:37:21.694Z,50.27
2023-03-03T06:39:49.206Z,43.87
2023-03-03T06:42:16.733Z,44.10
2023-03-03T06:44:44.608Z,42.17
2023-03-03T06:47:12.209Z,42.67
2023-03-03T06:49:39.874Z,48.50
2023-03-03T06:52:22.330Z,46.43
2023-03-03T06:54:50.920Z,42.70
2023-03-03T06:57:31.400Z,45.37
2023-03-03T07:00:20.366Z,50.07
2023-03-03T07:03:00.144Z,49.10
2023-03-03T07:05:28.977Z,40.80
2023-03-03T07:07:57.243Z,38.77
2023-03-03T07:10:29.068Z,39.40
2023-03-03T07:13:16.367Z,32.27
2023-03-03T07:15:44.717Z,36.83
2023-03-03T07:18:25.947Z,39.30
2023-03-03T07:20:53.465Z,37.17
2023-03-03T07:23:26.693Z,33.50
2023-03-03T07:25:54.362Z,35.30
2023-03-03T07:28:28.613Z,31.30
2023-03-03T07:30:58.195Z,37.43
2023-03-03T07:33:29.842Z,34.87
2023-03-03T07:35:59.478Z,35.90
2023-03-03T07:38:43.829Z,36.87
2023-03-03T07:43:54.898Z,33.57
2023-03-03T07:46:42.880Z,39.27
2023-03-03T07:49:21.471Z,35.97
2023-03-03T07:51:59.867Z,36.23
2023-03-03T07:54:40.287Z,30.13
2023-03-03T07:57:36.835Z,38.17
2023-03-03T08:00:16.781Z,37.93
2023-03-03T08:03:15.190Z,35.47
2023-03-03T08:05:46.741Z,34.93
2023-03-03T08:08:36.743Z,37.20
2023-03-03T08:11:05.820Z,29.10
2023-03-03T08:13:33.230Z,33.10
2023-03-03T08:16:09.953Z,30.83
2023-03-03T08:18:47.703Z,30.40
2023-03-03T08:21:20.964Z,31.50
2023-03-03T08:23:53.482Z,27.55
2023-03-03T08:26:22.890Z,35.43
2023-03-03T08:28:51.580Z,34.20
2023-03-03T08:31:31.070Z,31.97
2023-03-03T08:34:06.231Z,37.43
2023-03-03T08:36:34.788Z,31.07
2023-03-03T08:39:05.182Z,40.90
2023-03-03T08:41:32.766Z,34.37
2023-03-03T08:44:00.276Z,31.67
2023-03-03T08:46:28.634Z,36.40
2023-03-03T08:48:56.225Z,34.43
2023-03-03T08:51:25.185Z,41.43
2023-03-03T08:53:52.757Z,31.97
2023-03-03T08:56:20.302Z,37.13
2023-03-03T08:59:01.548Z,32.63
2023-03-03T09:01:32.778Z,28.83
2023-03-03T09:04:00.837Z,32.73
2023-03-03T09:06:28.453Z,32.27
2023-03-03T09:08:56.388Z,30.63
2023-03-03T09:11:29.552Z,32.63
2023-03-03T09:14:11.353Z,27.35
2023-03-03T09:16:53.243Z,35.10
2023-03-03T09:19:34.840Z,33.10
2023-03-03T09:22:23.907Z,35.70
2023-03-03T09:24:57.034Z,30.23
2023-03-03T09:27:37.809Z,34.22
2023-03-03T09:30:44.794Z,34.70
2023-03-03T09:33:43.426Z,37.77
2023-03-03T09:36:38.517Z,37.10
2023-03-03T09:39:36.706Z,32.67
2023-03-03T09:42:20.546Z,32.20
2023-03-03T09:45:21.781Z,31.15
2023-03-03T09:48:20.089Z,33.47
2023-03-03T09:51:29.441Z,33.17
2023-03-03T09:54:20.540Z,30.57
2023-03-03T09:57:16.521Z,33.40
2023-03-03T10:00:24.517Z,34.07
2023-03-03T10:03:46.309Z,35.33
2023-03-03T10:06:33.207Z,29.83
2023-03-03T10:09:37.033Z,33.00
2023-03-03T10:12:10.544Z,31.00
2023-03-03T10:15:19.875Z,29.98
2023-03-03T10:17:53.841Z,27.27
2023-03-03T10:23:59.063Z,26.40
2023-03-03T10:27:12.988Z,27.90
2023-03-03T10:30:06.510Z,34.93
2023-03-03T10:32:56.008Z,26.53
2023-03-03T10:36:05.849Z,25.37
2023-03-03T10:39:03.345Z,27.73
2023-03-03T10:42:15.821Z,25.33
2023-03-03T10:45:31.885Z,27.33
2023-03-03T10:48:28.680Z,28.33
2023-03-03T10:51:07.000Z,27.43
2023-03-03T10:53:59.371Z,30.00
2023-03-03T10:56:55.353Z,28.50
2023-03-03T10:59:54.902Z,23.87
2023-03-03T11:03:00.707Z,25.70
2023-03-03T11:05:51.374Z,25.77
2023-03-03T11:09:14.060Z,24.53
2023-03-03T11:12:32.724Z,24.77
2023-03-03T11:15:24.041Z,23.20
2023-03-03T11:18:25.597Z,24.27
2023-03-03T11:21:41.516Z,26.50
2023-03-03T11:25:01.293Z,25.07
2023-03-03T11:27:56.388Z,25.13
2023-03-03T11:30:43.660Z,23.53
2023-03-03T11:33:34.038Z,26.63
2023-03-03T11:36:35.229Z,20.77
2023-03-03T11:39:07.593Z,23.60
2023-03-03T11:42:18.153Z,25.23
2023-03-03T11:44:52.788Z,25.13
2023-03-03T11:47:48.658Z,22.20
2023-03-03T11:50:48.961Z,23.83
2023-03-03T11:53:49.352Z,27.07
2023-03-03T11:56:42.618Z,26.60
2023-03-03T11:59:30.081Z,24.50
2023-03-03T12:02:15.977Z,25.00
2023-03-03T12:04:59.205Z,25.33
2023-03-03T12:07:57.750Z,26.13
2023-03-03T12:11:13.104Z,23.80
2023-03-03T12:13:58.098Z,32.33
2023-03-03T12:17:17.336Z,25.53
2023-03-03T12:20:09.636Z,26.50
2023-03-03T12:22:57.784Z,27.57
2023-03-03T12:25:42.296Z,26.60
2023-03-03T12:28:38.417Z,24.97
2023-03-03T12:31:23.938Z,27.67
2023-03-03T12:34:12.271Z,28.87
2023-03-03T12:37:05.165Z,22.17
2023-03-03T12:39:48.926Z,27.37
2023-03-03T12:42:25.213Z,23.25
2023-03-03T12:45:21.319Z,27.10
2023-03-03T12:47:57.528Z,25.23
2023-03-03T12:51:06.793Z,28.70
2023-03-03T12:54:08.440Z,24.57
2023-03-03T12:56:54.926Z,26.40
2023-03-03T12:59:33.217Z,25.90
2023-03-03T13:02:25.716Z,27.23
2023-03-03T13:05:38.226Z,30.67
2023-03-03T13:08:31.838Z,28.97
2023-03-03T13:11:36.773Z,22.42
2023-03-03T13:14:41.304Z,29.83
2023-03-03T13:17:27.705Z,24.80
2023-03-03T13:20:03.209Z,26.57
2023-03-03T13:22:58.739Z,24.20
2023-03-03T13:25:50.594Z,27.43
2023-03-03T13:28:26.185Z,26.27
2023-03-03T13:31:11.850Z,29.10
2023-03-03T13:33:48.882Z,29.60
2023-03-03T13:36:18.139Z,26.97
2023-03-03T13:38:53.865Z,27.00
2023-03-03T13:41:38.924Z,27.07
2023-03-03T13:44:42.521Z,29.37
2023-03-03T13:47:50.674Z,28.70
2023-03-03T13:50:45.040Z,30.77
2023-03-03T13:53:57.396Z,34.40
2023-03-03T13:57:16.614Z,32.73
2023-03-03T14:00:06.648Z,26.83
2023-03-03T14:03:18.268Z,26.17
2023-03-03T14:05:50.327Z,30.10
2023-03-03T14:08:55.925Z,26.93
2023-03-03T14:11:31.392Z,26.90
2023-03-03T14:14:20.100Z,38.17
2023-03-03T14:17:14.415Z,27.27
2023-03-03T14:20:03.256Z,30.85
2023-03-03T14:23:03.644Z,29.53
2023-03-03T14:26:03.953Z,31.20
2023-03-03T14:28:49.821Z,29.67
2023-03-03T14:31:31.694Z,28.17
2023-03-03T14:34:38.901Z,30.00
2023-03-03T14:37:46.691Z,25.13
2023-03-03T14:40:22.555Z,31.17
2023-03-03T14:42:52.841Z,33.17
2023-03-03T14:45:36.231Z,30.27
2023-03-03T14:48:25.740Z,27.50
2023-03-03T14:51:29.197Z,32.37
2023-03-03T14:53:58.079Z,30.83
2023-03-03T14:56:33.287Z,26.37
2023-03-03T14:59:23.574Z,26.13
2023-03-03T15:02:24.692Z,30.27
2023-03-03T15:05:23.994Z,26.00
2023-03-03T15:08:14.713Z,33.23
2023-03-03T15:10:45.837Z,27.73
2023-03-03T15:13:22.121Z,27.80
2023-03-03T15:15:58.936Z,29.53
2023-03-03T15:18:28.968Z,27.70
2023-03-03T15:21:08.917Z,28.07
2023-03-03T15:24:21.863Z,36.07
2023-03-03T15:27:01.970Z,27.40
2023-03-03T15:29:44.656Z,30.27
2023-03-03T15:33:17.188Z,28.03
2023-03-03T15:35:56.548Z,30.73
2023-03-03T15:38:56.556Z,31.20
2023-03-03T15:41:35.150Z,28.37
2023-03-03T15:44:19.951Z,28.53
2023-03-03T15:47:40.618Z,31.90
2023-03-03T15:50:27.193Z,29.87
2023-03-03T15:53:29.758Z,26.40
2023-03-03T15:56:35.730Z,28.60
2023-03-03T15:59:32.744Z,28.57
2023-03-03T16:02:24.889Z,27.33
2023-03-03T16:05:32.726Z,30.97
2023-03-03T16:08:23.256Z,30.67
2023-03-03T16:11:04.732Z,30.40
2023-03-03T16:13:59.163Z,29.70
2023-03-03T16:16:52.779Z,28.92
2023-03-03T16:19:34.944Z,29.13
2023-03-03T16:22:41.290Z,32.47
2023-03-03T16:25:40.426Z,30.63
2023-03-03T16:28:16.363Z,31.03
2023-03-03T16:31:29.630Z,27.13
2023-03-03T16:34:21.813Z,29.60
2023-03-03T16:37:03.302Z,27.53
2023-03-03T16:40:22.122Z,32.07
2023-03-03T16:43:18.552Z,31.67
2023-03-03T16:45:46.802Z,29.97
2023-03-03T16:48:50.582Z,31.47
2023-03-03T16:51:53.025Z,32.63
2023-03-03T16:54:54.148Z,29.70
2023-03-03T16:57:53.430Z,25.83
2023-03-03T17:00:40.569Z,40.67
2023-03-03T17:03:34.699Z,41.27
2023-03-03T17:06:50.142Z,106.60
2023-03-03T17:09:41.678Z,35.10
2023-03-03T17:12:33.181Z,71.80
2023-03-03T17:15:16.605Z,36.83
2023-03-03T17:18:11.357Z,38.83
2023-03-03T17:20:49.185Z,44.37
2023-03-03T17:24:05.442Z,38.83
2023-03-03T17:27:03.515Z,35.50
2023-03-03T17:29:55.143Z,37.87
2023-03-03T17:33:06.537Z,38.90
2023-03-03T17:35:55.914Z,41.03
2023-03-03T17:38:48.197Z,40.80
2023-03-03T17:41:41.887Z,37.90
2023-03-03T17:44:27.408Z,37.35
2023-03-03T17:47:01.556Z,39.27
2023-03-03T17:50:05.054Z,37.10
2023-03-03T17:52:43.280Z,37.27
2023-03-03T17:55:37.127Z,39.60
2023-03-03T17:58:44.802Z,37.33
2023-03-03T18:01:46.470Z,37.00
2023-03-03T18:04:29.834Z,33.97
2023-03-03T18:07:49.492Z,38.22
2023-03-03T18:11:03.083Z,38.40
2023-03-03T18:13:59.768Z,33.50
2023-03-03T18:17:24.126Z,36.47
2023-03-03T18:20:48.346Z,41.13
2023-03-03T18:23:39.566Z,46.00
2023-03-03T18:26:41.949Z,38.20
2023-03-03T18:29:22.121Z,32.73
2023-03-03T18:31:52.636Z,35.53
2023-03-03T18:34:20.014Z,36.63
2023-03-03T18:37:03.764Z,34.90
2023-03-03T18:39:45.922Z,33.80
2023-03-03T18:42:16.361Z,36.90
2023-03-03T18:44:45.165Z,37.37
2023-03-03T18:47:14.927Z,38.27
2023-03-03T18:50:31.356Z,31.87
2023-03-03T18:53:10.850Z,33.57
2023-03-03T18:55:50.996Z,35.60
2023-03-03T18:58:18.361Z,39.07
2023-03-03T19:01:32.128Z,35.50
2023-03-03T19:04:22.753Z,40.50
2023-03-03T19:07:08.757Z,40.03
2023-03-03T19:10:03.523Z,38.27
2023-03-03T19:12:54.389Z,38.03
2023-03-03T19:15:53.896Z,36.17
2023-03-03T19:18:27.680Z,36.13
2023-03-03T19:21:33.644Z,60.85
2023-03-03T19:24:24.087Z,52.83
2023-03-03T19:27:09.581Z,52.13
2023-03-03T19:29:46.019Z,54.03
2023-03-03T19:32:57.869Z,46.43
2023-03-03T19:35:53.982Z,40.33
2023-03-03T19:38:45.606Z,34.23
2023-03-03T19:41:24.832Z,40.53
2023-03-03T19:44:51.197Z,30.60
2023-03-03T19:47:44.459Z,34.07
2023-03-03T19:50:26.414Z,31.23
2023-03-03T19:53:35.593Z,36.27
2023-03-03T19:56:24.512Z,30.03
2023-03-03T19:59:13.765Z,31.77
2023-03-03T20:02:15.141Z,28.33
2023-03-03T20:05:02.982Z,39.97
2023-03-03T20:07:57.696Z,33.30
2023-03-03T20:10:43.064Z,31.43
2023-03-03T20:13:37.618Z,30.97
2023-03-03T20:16:40.665Z,32.97
2023-03-03T20:19:56.036Z,31.77
2023-03-03T20:22:46.301Z,31.07
2023-03-03T20:25:29.540Z,27.33
2023-03-03T20:28:29.784Z,33.13
2023-03-03T20:31:17.343Z,30.37
2023-03-03T20:34:43.990Z,29.03
2023-03-03T20:38:02.553Z,31.03
2023-03-03T20:40:45.640Z,32.73
2023-03-03T20:43:46.089Z,33.87
2023-03-03T20:46:44.914Z,33.27
2023-03-03T20:49:28.807Z,29.07
2023-03-03T20:52:40.585Z,30.02
2023-03-03T20:55:25.384Z,32.47
2023-03-03T20:58:15.041Z,29.43
2023-03-03T21:01:14.664Z,33.73
2023-03-03T21:03:47.669Z,30.10
2023-03-03T21:06:19.020Z,28.60
2023-03-03T21:08:56.129Z,31.57
2023-03-03T21:11:32.783Z,28.43
2023-03-03T21:14:24.282Z,27.57
2023-03-03T21:16:56.520Z,28.90
2023-03-03T21:19:36.603Z,26.50
2023-03-03T21:22:04.633Z,30.60
2023-03-03T21:24:56.666Z,29.70
2023-03-03T21:27:34.296Z,29.13
2023-03-03T21:30:08.484Z,28.67
2023-03-03T21:32:48.036Z,26.00
2023-03-03T21:35:23.261Z,29.00
2023-03-03T21:37:55.208Z,26.03
2023-03-03T21:40:31.739Z,25.40
2023-03-03T21:43:00.135Z,30.03
2023-03-03T21:45:29.962Z,32.00
2023-03-03T21:47:59.270Z,29.73
2023-03-03T21:50:32.030Z,30.47
2023-03-03T21:52:59.505Z,29.17
2023-03-03T21:55:27.009Z,29.83
2023-03-03T21:57:54.499Z,28.17
2023-03-03T22:00:22.388Z,28.60
2023-03-03T22:02:49.910Z,30.03
2023-03-03T22:05:17.378Z,31.33
2023-03-03T22:07:44.895Z,30.77
2023-03-03T22:10:12.620Z,31.53
2023-03-03T22:12:40.113Z,29.90
2023-03-03T22:15:08.028Z,31.13
2023-03-03T22:17:35.512Z,31.80
2023-03-03T22:20:03.038Z,29.80
2023-03-03T22:22:30.505Z,28.30
2023-03-03T22:24:58.017Z,30.27
2023-03-03T22:27:25.520Z,32.53
2023-03-03T22:29:53.026Z,30.67
2023-03-03T22:32:20.556Z,29.10
2023-03-03T22:34:48.253Z,28.23
2023-03-03T22:37:15.772Z,32.23
2023-03-03T22:39:43.253Z,30.13
2023-03-03T22:42:11.097Z,28.23
2023-03-03T22:44:38.726Z,31.13
2023-03-03T22:47:06.256Z,29.03
2023-03-03T22:49:33.800Z,30.23
2023-03-03T22:52:02.508Z,29.07
2023-03-03T22:54:30.035Z,29.33
2023-03-03T22:56:57.596Z,29.50
2023-03-03T22:59:25.100Z,32.37
2023-03-03T23:01:52.578Z,29.10
2023-03-03T23:04:20.113Z,30.13
2023-03-03T23:06:47.729Z,28.33
2023-03-03T23:09:15.253Z,29.10
2023-03-03T23:11:42.739Z,31.13
2023-03-03T23:14:10.268Z,30.90
2023-03-03T23:16:37.805Z,29.57
2023-03-03T23:19:05.342Z,33.20
2023-03-03T23:21:32.963Z,29.27
2023-03-03T23:24:01.143Z,30.23
2023-03-03T23:26:28.897Z,31.43
2023-03-03T23:28:56.629Z,29.47
2023-03-03T23:31:26.151Z,32.03
2023-03-03T23:33:53.705Z,29.00
2023-03-03T23:36:21.236Z,27.70
2023-03-03T23:38:48.812Z,29.47
2023-03-03T23:41:16.374Z,32.77
2023-03-03T23:43:43.899Z,27.73
2023-03-03T23:46:11.570Z,28.47
2023-03-03T23:48:39.109Z,26.50
2023-03-03T23:51:06.612Z,27.87
2023-03-03T23:53:34.244Z,30.17
2023-03-03T23:56:02.069Z,29.33
2023-03-03T23:58:29.621Z,29.80
